sensor_id;sensor_type;location;lat;lon;timestamp;P1;durP1;ratioP1;P2;durP2;ratioP2
1106;SDS011;540;49.448;8.612;2023-02-26T00:00:22;3.08;;;1.70;;
1106;SDS011;540;49.448;8.612;2023-02-26T00:02:52;4.35;;;1.60;;
1106;SDS011;540;49.448;8.612;2023-02-26T00:05:19;2.47;;;1.52;;
1106;SDS011;540;49.448;8.612;2023-02-26T00:07:47;3.38;;;1.88;;
1106;SDS011;540;49.448;8.612;2023-02-26T00:10:15;6.60;;;1.83;;
1106;SDS011;540;49.448;8.612;2023-02-26T00:12:43;4.20;;;1.90;;
1106;SDS011;540;49.448;8.612;2023-02-26T00:15:12;3.42;;;1.58;;
1106;SDS011;540;49.448;8.612;2023-02-26T00:17:44;3.78;;;1.60;;
1106;SDS011;540;49.448;8.612;2023-02-26T00:20:19;6.20;;;1.90;;
1106;SDS011;540;49.448;8.612;2023-02-26T00:22:47;3.58;;;1.67;;
1106;SDS011;540;49.448;8.612;2023-02-26T00:25:15;3.80;;;1.92;;
1106;SDS011;540;49.448;8.612;2023-02-26T00:27:43;2.53;;;1.45;;
1106;SDS011;540;49.448;8.612;2023-02-26T00:30:12;7.30;;;2.50;;
1106;SDS011;540;49.448;8.612;2023-02-26T00:32:40;6.65;;;1.60;;
1106;SDS011;540;49.448;8.612;2023-02-26T00:35:11;6.45;;;1.75;;
1106;SDS011;540;49.448;8.612;2023-02-26T00:37:47;3.47;;;1.70;;
1106;SDS011;540;49.448;8.612;2023-02-26T00:40:24;5.88;;;1.98;;
1106;SDS011;540;49.448;8.612;2023-02-26T00:43:00;4.53;;;1.80;;
1106;SDS011;540;49.448;8.612;2023-02-26T00:45:29;6.05;;;1.63;;
1106;SDS011;540;49.448;8.612;2023-02-26T00:48:02;3.72;;;1.63;;
1106;SDS011;540;49.448;8.612;2023-02-26T00:50:48;5.25;;;1.90;;
1106;SDS011;540;49.448;8.612;2023-02-26T00:53:28;3.05;;;1.77;;
1106;SDS011;540;49.448;8.612;2023-02-26T00:56:01;6.28;;;1.75;;
1106;SDS011;540;49.448;8.612;2023-02-26T00:58:28;5.82;;;2.17;;
1106;SDS011;540;49.448;8.612;2023-02-26T01:00:56;5.82;;;2.10;;
1106;SDS011;540;49.448;8.612;2023-02-26T01:03:25;8.23;;;1.70;;
1106;SDS011;540;49.448;8.612;2023-02-26T01:05:54;7.13;;;1.58;;
1106;SDS011;540;49.448;8.612;2023-02-26T01:08:23;5.47;;;2.58;;
1106;SDS011;540;49.448;8.612;2023-02-26T01:10:57;7.38;;;2.05;;
1106;SDS011;540;49.448;8.612;2023-02-26T01:13:25;3.40;;;1.70;;
1106;SDS011;540;49.448;8.612;2023-02-26T01:15:54;4.78;;;2.40;;
1106;SDS011;540;49.448;8.612;2023-02-26T01:18:30;6.18;;;1.83;;
1106;SDS011;540;49.448;8.612;2023-02-26T01:21:04;5.37;;;1.90;;
1106;SDS011;540;49.448;8.612;2023-02-26T01:23:37;4.43;;;2.40;;
1106;SDS011;540;49.448;8.612;2023-02-26T01:26:11;2.97;;;1.50;;
1106;SDS011;540;49.448;8.612;2023-02-26T01:28:45;3.77;;;2.07;;
1106;SDS011;540;49.448;8.612;2023-02-26T01:31:16;4.13;;;1.90;;
1106;SDS011;540;49.448;8.612;2023-02-26T01:33:52;3.20;;;2.03;;
1106;SDS011;540;49.448;8.612;2023-02-26T01:36:25;4.28;;;2.58;;
1106;SDS011;540;49.448;8.612;2023-02-26T01:38:58;5.30;;;2.08;;
1106;SDS011;540;49.448;8.612;2023-02-26T01:41:33;5.75;;;2.35;;
1106;SDS011;540;49.448;8.612;2023-02-26T01:44:09;3.90;;;2.05;;
1106;SDS011;540;49.448;8.612;2023-02-26T01:46:48;8.57;;;2.08;;
1106;SDS011;540;49.448;8.612;2023-02-26T01:49:24;5.75;;;2.00;;
1106;SDS011;540;49.448;8.612;2023-02-26T01:51:53;6.70;;;1.92;;
1106;SDS011;540;49.448;8.612;2023-02-26T01:54:23;4.15;;;2.22;;
1106;SDS011;540;49.448;8.612;2023-02-26T01:56:56;5.78;;;2.28;;
1106;SDS011;540;49.448;8.612;2023-02-26T01:59:30;2.78;;;1.67;;
1106;SDS011;540;49.448;8.612;2023-02-26T02:01:59;5.50;;;2.30;;
1106;SDS011;540;49.448;8.612;2023-02-26T02:04:31;5.18;;;1.92;;
1106;SDS011;540;49.448;8.612;2023-02-26T02:06:59;5.55;;;2.13;;
1106;SDS011;540;49.448;8.612;2023-02-26T02:09:28;3.35;;;2.13;;
1106;SDS011;540;49.448;8.612;2023-02-26T02:12:01;3.35;;;1.90;;
1106;SDS011;540;49.448;8.612;2023-02-26T02:14:40;6.03;;;2.25;;
1106;SDS011;540;49.448;8.612;2023-02-26T02:17:17;5.35;;;2.03;;
1106;SDS011;540;49.448;8.612;2023-02-26T02:20:05;6.05;;;1.73;;
1106;SDS011;540;49.448;8.612;2023-02-26T02:23:02;3.35;;;1.67;;
1106;SDS011;540;49.448;8.612;2023-02-26T02:28:41;11.98;;;2.50;;
1106;SDS011;540;49.448;8.612;2023-02-26T02:31:23;5.05;;;2.03;;
1106;SDS011;540;49.448;8.612;2023-02-26T02:33:56;3.67;;;2.17;;
1106;SDS011;540;49.448;8.612;2023-02-26T02:36:29;2.75;;;1.77;;
1106;SDS011;540;49.448;8.612;2023-02-26T02:39:01;5.80;;;2.22;;
1106;SDS011;540;49.448;8.612;2023-02-26T02:41:34;2.13;;;1.70;;
1106;SDS011;540;49.448;8.612;2023-02-26T02:44:06;4.57;;;2.13;;
1106;SDS011;540;49.448;8.612;2023-02-26T02:46:39;4.65;;;2.30;;
1106;SDS011;540;49.448;8.612;2023-02-26T02:49:10;3.80;;;1.90;;
1106;SDS011;540;49.448;8.612;2023-02-26T02:51:43;4.25;;;2.22;;
1106;SDS011;540;49.448;8.612;2023-02-26T02:54:16;6.63;;;2.25;;
1106;SDS011;540;49.448;8.612;2023-02-26T02:56:49;5.78;;;1.75;;
1106;SDS011;540;49.448;8.612;2023-02-26T02:59:22;6.53;;;2.03;;
1106;SDS011;540;49.448;8.612;2023-02-26T03:01:57;4.20;;;1.70;;
1106;SDS011;540;49.448;8.612;2023-02-26T03:04:30;3.03;;;2.13;;
1106;SDS011;540;49.448;8.612;2023-02-26T03:06:58;4.65;;;2.17;;
1106;SDS011;540;49.448;8.612;2023-02-26T03:09:25;3.78;;;2.00;;
1106;SDS011;540;49.448;8.612;2023-02-26T03:11:53;7.22;;;1.92;;
1106;SDS011;540;49.448;8.612;2023-02-26T03:14:21;6.82;;;2.20;;
1106;SDS011;540;49.448;8.612;2023-02-26T03:17:01;5.18;;;2.15;;
1106;SDS011;540;49.448;8.612;2023-02-26T03:19:45;4.15;;;1.70;;
1106;SDS011;540;49.448;8.612;2023-02-26T03:22:21;6.47;;;2.50;;
1106;SDS011;540;49.448;8.612;2023-02-26T03:24:55;4.53;;;2.10;;
1106;SDS011;540;49.448;8.612;2023-02-26T03:27:27;2.97;;;1.90;;
1106;SDS011;540;49.448;8.612;2023-02-26T03:30:01;7.10;;;2.45;;
1106;SDS011;540;49.448;8.612;2023-02-26T03:32:44;8.27;;;2.33;;
1106;SDS011;540;49.448;8.612;2023-02-26T03:35:17;6.47;;;2.78;;
1106;SDS011;540;49.448;8.612;2023-02-26T03:37:53;9.15;;;2.35;;
1106;SDS011;540;49.448;8.612;2023-02-26T03:40:25;7.57;;;2.50;;
1106;SDS011;540;49.448;8.612;2023-02-26T03:42:58;6.38;;;2.35;;
1106;SDS011;540;49.448;8.612;2023-02-26T03:45:30;7.82;;;2.75;;
1106;SDS011;540;49.448;8.612;2023-02-26T03:48:03;5.53;;;2.95;;
1106;SDS011;540;49.448;8.612;2023-02-26T03:50:34;12.85;;;3.15;;
1106;SDS011;540;49.448;8.612;2023-02-26T03:53:06;10.38;;;3.00;;
1106;SDS011;540;49.448;8.612;2023-02-26T03:55:38;6.82;;;3.05;;
1106;SDS011;540;49.448;8.612;2023-02-26T03:58:09;4.75;;;2.40;;
1106;SDS011;540;49.448;8.612;2023-02-26T04:00:37;6.45;;;3.00;;
1106;SDS011;540;49.448;8.612;2023-02-26T04:03:10;5.82;;;2.72;;
1106;SDS011;540;49.448;8.612;2023-02-26T04:05:42;7.63;;;2.42;;
1106;SDS011;540;49.448;8.612;2023-02-26T04:08:13;4.90;;;2.75;;
1106;SDS011;540;49.448;8.612;2023-02-26T04:10:43;10.32;;;3.08;;
1106;SDS011;540;49.448;8.612;2023-02-26T04:13:13;3.88;;;2.17;;
1106;SDS011;540;49.448;8.612;2023-02-26T04:15:41;8.75;;;2.80;;
1106;SDS011;540;49.448;8.612;2023-02-26T04:18:10;7.50;;;3.53;;
1106;SDS011;540;49.448;8.612;2023-02-26T04:20:38;9.30;;;3.50;;
1106;SDS011;540;49.448;8.612;2023-02-26T04:23:05;8.25;;;2.72;;
1106;SDS011;540;49.448;8.612;2023-02-26T04:25:33;8.55;;;3.50;;
1106;SDS011;540;49.448;8.612;2023-02-26T04:28:01;5.43;;;2.58;;
1106;SDS011;540;49.448;8.612;2023-02-26T04:30:29;7.25;;;2.78;;
1106;SDS011;540;49.448;8.612;2023-02-26T04:32:57;9.30;;;3.40;;
1106;SDS011;540;49.448;8.612;2023-02-26T04:35:26;9.07;;;2.95;;
1106;SDS011;540;49.448;8.612;2023-02-26T04:37:54;9.02;;;3.13;;
1106;SDS011;540;49.448;8.612;2023-02-26T04:40:22;9.13;;;3.20;;
1106;SDS011;540;49.448;8.612;2023-02-26T04:42:50;10.93;;;2.90;;
1106;SDS011;540;49.448;8.612;2023-02-26T04:45:18;6.20;;;3.20;;
1106;SDS011;540;49.448;8.612;2023-02-26T04:47:45;7.45;;;2.95;;
1106;SDS011;540;49.448;8.612;2023-02-26T04:50:13;6.55;;;3.15;;
1106;SDS011;540;49.448;8.612;2023-02-26T04:52:43;5.75;;;3.10;;
1106;SDS011;540;49.448;8.612;2023-02-26T04:55:11;6.38;;;3.00;;
1106;SDS011;540;49.448;8.612;2023-02-26T04:57:39;8.32;;;3.55;;
1106;SDS011;540;49.448;8.612;2023-02-26T05:00:07;9.75;;;3.33;;
1106;SDS011;540;49.448;8.612;2023-02-26T05:02:36;9.10;;;3.08;;
1106;SDS011;540;49.448;8.612;2023-02-26T05:05:04;7.18;;;3.40;;
1106;SDS011;540;49.448;8.612;2023-02-26T05:07:32;8.65;;;3.20;;
1106;SDS011;540;49.448;8.612;2023-02-26T05:10:01;7.78;;;3.53;;
1106;SDS011;540;49.448;8.612;2023-02-26T05:12:30;9.68;;;3.42;;
1106;SDS011;540;49.448;8.612;2023-02-26T05:14:57;8.95;;;3.10;;
1106;SDS011;540;49.448;8.612;2023-02-26T05:17:25;8.98;;;2.92;;
1106;SDS011;540;49.448;8.612;2023-02-26T05:19:53;13.10;;;3.05;;
1106;SDS011;540;49.448;8.612;2023-02-26T05:22:21;5.43;;;2.70;;
1106;SDS011;540;49.448;8.612;2023-02-26T05:24:49;8.02;;;2.35;;
1106;SDS011;540;49.448;8.612;2023-02-26T05:27:18;6.28;;;2.13;;
1106;SDS011;540;49.448;8.612;2023-02-26T05:29:45;3.95;;;2.30;;
1106;SDS011;540;49.448;8.612;2023-02-26T05:32:13;4.20;;;1.90;;
1106;SDS011;540;49.448;8.612;2023-02-26T05:34:41;8.98;;;2.20;;
1106;SDS011;540;49.448;8.612;2023-02-26T05:37:09;8.18;;;2.17;;
1106;SDS011;540;49.448;8.612;2023-02-26T05:39:37;5.28;;;2.08;;
1106;SDS011;540;49.448;8.612;2023-02-26T05:42:06;5.13;;;2.53;;
1106;SDS011;540;49.448;8.612;2023-02-26T05:44:36;4.72;;;2.22;;
1106;SDS011;540;49.448;8.612;2023-02-26T05:47:04;2.55;;;1.50;;
1106;SDS011;540;49.448;8.612;2023-02-26T05:49:32;7.55;;;1.98;;
1106;SDS011;540;49.448;8.612;2023-02-26T05:51:59;7.95;;;2.20;;
1106;SDS011;540;49.448;8.612;2023-02-26T05:54:28;4.57;;;2.08;;
1106;SDS011;540;49.448;8.612;2023-02-26T05:56:55;2.63;;;1.48;;
1106;SDS011;540;49.448;8.612;2023-02-26T05:59:23;2.53;;;1.35;;
1106;SDS011;540;49.448;8.612;2023-02-26T06:01:52;3.70;;;1.65;;
1106;SDS011;540;49.448;8.612;2023-02-26T06:04:20;2.85;;;1.63;;
1106;SDS011;540;49.448;8.612;2023-02-26T06:06:48;3.83;;;1.73;;
1106;SDS011;540;49.448;8.612;2023-02-26T06:09:16;3.08;;;1.52;;
1106;SDS011;540;49.448;8.612;2023-02-26T06:11:44;2.90;;;1.58;;
1106;SDS011;540;49.448;8.612;2023-02-26T06:14:12;5.82;;;2.00;;
1106;SDS011;540;49.448;8.612;2023-02-26T06:16:39;4.03;;;1.50;;
1106;SDS011;540;49.448;8.612;2023-02-26T06:19:09;3.70;;;1.55;;
1106;SDS011;540;49.448;8.612;2023-02-26T06:21:36;5.40;;;2.20;;
1106;SDS011;540;49.448;8.612;2023-02-26T06:24:04;4.15;;;1.75;;
1106;SDS011;540;49.448;8.612;2023-02-26T06:26:33;5.30;;;2.22;;
1106;SDS011;540;49.448;8.612;2023-02-26T06:29:01;9.57;;;1.50;;
1106;SDS011;540;49.448;8.612;2023-02-26T06:31:28;4.97;;;1.88;;
1106;SDS011;540;49.448;8.612;2023-02-26T06:33:56;6.65;;;1.92;;
1106;SDS011;540;49.448;8.612;2023-02-26T06:36:25;1.98;;;1.30;;
1106;SDS011;540;49.448;8.612;2023-02-26T06:38:53;3.63;;;1.40;;
1106;SDS011;540;49.448;8.612;2023-02-26T06:41:21;11.70;;;1.88;;
1106;SDS011;540;49.448;8.612;2023-02-26T06:43:49;2.88;;;1.50;;
1106;SDS011;540;49.448;8.612;2023-02-26T06:46:16;4.50;;;1.63;;
1106;SDS011;540;49.448;8.612;2023-02-26T06:48:44;4.05;;;1.83;;
1106;SDS011;540;49.448;8.612;2023-02-26T06:51:12;6.15;;;1.17;;
1106;SDS011;540;49.448;8.612;2023-02-26T06:53:41;2.03;;;1.17;;
1106;SDS011;540;49.448;8.612;2023-02-26T06:56:09;4.38;;;1.48;;
1106;SDS011;540;49.448;8.612;2023-02-26T06:58:37;6.95;;;1.35;;
1106;SDS011;540;49.448;8.612;2023-02-26T07:01:05;3.97;;;1.05;;
1106;SDS011;540;49.448;8.612;2023-02-26T07:03:32;4.05;;;2.03;;
1106;SDS011;540;49.448;8.612;2023-02-26T07:06:00;4.50;;;1.52;;
1106;SDS011;540;49.448;8.612;2023-02-26T07:08:49;3.63;;;1.02;;
1106;SDS011;540;49.448;8.612;2023-02-26T07:11:17;5.18;;;1.73;;
1106;SDS011;540;49.448;8.612;2023-02-26T07:13:45;7.80;;;1.35;;
1106;SDS011;540;49.448;8.612;2023-02-26T07:16:12;2.72;;;1.23;;
1106;SDS011;540;49.448;8.612;2023-02-26T07:18:40;3.33;;;1.75;;
1106;SDS011;540;49.448;8.612;2023-02-26T07:21:08;3.67;;;1.35;;
1106;SDS011;540;49.448;8.612;2023-02-26T07:23:36;4.75;;;1.77;;
1106;SDS011;540;49.448;8.612;2023-02-26T07:26:05;6.93;;;1.48;;
1106;SDS011;540;49.448;8.612;2023-02-26T07:28:34;1.05;;;0.95;;
1106;SDS011;540;49.448;8.612;2023-02-26T07:31:02;7.20;;;2.00;;
1106;SDS011;540;49.448;8.612;2023-02-26T07:33:30;4.80;;;1.70;;
1106;SDS011;540;49.448;8.612;2023-02-26T07:36:00;3.65;;;1.30;;
1106;SDS011;540;49.448;8.612;2023-02-26T07:38:27;4.60;;;1.40;;
1106;SDS011;540;49.448;8.612;2023-02-26T07:40:55;2.10;;;1.30;;
1106;SDS011;540;49.448;8.612;2023-02-26T07:43:25;2.55;;;1.70;;
1106;SDS011;540;49.448;8.612;2023-02-26T07:45:52;4.97;;;1.38;;
1106;SDS011;540;49.448;8.612;2023-02-26T07:48:20;4.60;;;1.80;;
1106;SDS011;540;49.448;8.612;2023-02-26T07:50:50;8.43;;;1.85;;
1106;SDS011;540;49.448;8.612;2023-02-26T07:53:18;4.18;;;2.13;;
1106;SDS011;540;49.448;8.612;2023-02-26T07:55:47;5.72;;;1.65;;
1106;SDS011;540;49.448;8.612;2023-02-26T07:58:15;2.28;;;1.30;;
1106;SDS011;540;49.448;8.612;2023-02-26T08:00:44;3.80;;;1.63;;
1106;SDS011;540;49.448;8.612;2023-02-26T08:03:12;3.85;;;1.95;;
1106;SDS011;540;49.448;8.612;2023-02-26T08:05:40;3.60;;;1.17;;
1106;SDS011;540;49.448;8.612;2023-02-26T08:08:08;4.53;;;1.63;;
1106;SDS011;540;49.448;8.612;2023-02-26T08:10:36;5.30;;;1.92;;
1106;SDS011;540;49.448;8.612;2023-02-26T08:13:07;4.28;;;2.88;;
1106;SDS011;540;49.448;8.612;2023-02-26T08:15:35;4.85;;;1.65;;
1106;SDS011;540;49.448;8.612;2023-02-26T08:18:05;4.38;;;1.60;;
1106;SDS011;540;49.448;8.612;2023-02-26T08:20:33;3.88;;;1.50;;
1106;SDS011;540;49.448;8.612;2023-02-26T08:23:01;3.50;;;1.80;;
1106;SDS011;540;49.448;8.612;2023-02-26T08:25:29;7.10;;;2.08;;
1106;SDS011;540;49.448;8.612;2023-02-26T08:27:57;2.20;;;1.70;;
1106;SDS011;540;49.448;8.612;2023-02-26T08:30:26;3.67;;;1.50;;
1106;SDS011;540;49.448;8.612;2023-02-26T08:32:54;3.05;;;1.02;;
1106;SDS011;540;49.448;8.612;2023-02-26T08:35:23;5.28;;;1.50;;
1106;SDS011;540;49.448;8.612;2023-02-26T08:37:51;3.47;;;1.80;;
1106;SDS011;540;49.448;8.612;2023-02-26T08:40:19;3.50;;;1.50;;
1106;SDS011;540;49.448;8.612;2023-02-26T08:42:47;2.80;;;1.60;;
1106;SDS011;540;49.448;8.612;2023-02-26T08:45:15;3.50;;;1.45;;
1106;SDS011;540;49.448;8.612;2023-02-26T08:47:43;4.80;;;1.67;;
1106;SDS011;540;49.448;8.612;2023-02-26T08:50:23;4.28;;;1.23;;
1106;SDS011;540;49.448;8.612;2023-02-26T08:52:52;3.60;;;1.33;;
1106;SDS011;540;49.448;8.612;2023-02-26T08:55:20;1.80;;;1.40;;
1106;SDS011;540;49.448;8.612;2023-02-26T08:57:48;7.22;;;1.33;;
1106;SDS011;540;49.448;8.612;2023-02-26T09:00:17;3.35;;;1.27;;
1106;SDS011;540;49.448;8.612;2023-02-26T09:02:46;6.22;;;2.15;;
1106;SDS011;540;49.448;8.612;2023-02-26T09:05:17;2.92;;;1.58;;
1106;SDS011;540;49.448;8.612;2023-02-26T09:07:48;4.47;;;1.60;;
1106;SDS011;540;49.448;8.612;2023-02-26T09:10:18;3.28;;;1.20;;
1106;SDS011;540;49.448;8.612;2023-02-26T09:12:48;2.95;;;1.10;;
1106;SDS011;540;49.448;8.612;2023-02-26T09:15:18;4.75;;;1.52;;
1106;SDS011;540;49.448;8.612;2023-02-26T09:17:48;3.30;;;1.42;;
1106;SDS011;540;49.448;8.612;2023-02-26T09:20:17;2.35;;;1.23;;
1106;SDS011;540;49.448;8.612;2023-02-26T09:22:49;4.97;;;1.45;;
1106;SDS011;540;49.448;8.612;2023-02-26T09:25:18;2.45;;;1.42;;
1106;SDS011;540;49.448;8.612;2023-02-26T09:27:48;4.22;;;1.33;;
1106;SDS011;540;49.448;8.612;2023-02-26T09:30:18;2.85;;;1.27;;
1106;SDS011;540;49.448;8.612;2023-02-26T09:32:48;4.28;;;1.55;;
1106;SDS011;540;49.448;8.612;2023-02-26T09:35:17;5.55;;;2.58;;
1106;SDS011;540;49.448;8.612;2023-02-26T09:37:48;3.95;;;1.33;;
1106;SDS011;540;49.448;8.612;2023-02-26T09:40:20;5.25;;;2.45;;
1106;SDS011;540;49.448;8.612;2023-02-26T09:43:01;4.57;;;1.50;;
1106;SDS011;540;49.448;8.612;2023-02-26T09:45:39;3.60;;;1.25;;
1106;SDS011;540;49.448;8.612;2023-02-26T09:48:13;3.42;;;1.30;;
1106;SDS011;540;49.448;8.612;2023-02-26T09:50:46;3.28;;;1.48;;
1106;SDS011;540;49.448;8.612;2023-02-26T09:53:21;3.47;;;1.25;;
1106;SDS011;540;49.448;8.612;2023-02-26T09:55:54;1.77;;;1.25;;
1106;SDS011;540;49.448;8.612;2023-02-26T09:58:30;2.40;;;1.40;;
1106;SDS011;540;49.448;8.612;2023-02-26T10:01:04;2.50;;;1.23;;
1106;SDS011;540;49.448;8.612;2023-02-26T10:03:38;2.25;;;1.20;;
1106;SDS011;540;49.448;8.612;2023-02-26T10:06:22;1.83;;;0.90;;
1106;SDS011;540;49.448;8.612;2023-02-26T10:09:07;3.30;;;1.40;;
1106;SDS011;540;49.448;8.612;2023-02-26T10:11:50;3.85;;;1.23;;
1106;SDS011;540;49.448;8.612;2023-02-26T10:14:23;3.20;;;1.10;;
1106;SDS011;540;49.448;8.612;2023-02-26T10:16:55;2.67;;;0.95;;
1106;SDS011;540;49.448;8.612;2023-02-26T10:19:27;2.28;;;1.00;;
1106;SDS011;540;49.448;8.612;2023-02-26T10:21:59;1.30;;;0.80;;
1106;SDS011;540;49.448;8.612;2023-02-26T10:24:36;1.95;;;0.88;;
1106;SDS011;540;49.448;8.612;2023-02-26T10:27:10;1.98;;;1.10;;
1106;SDS011;540;49.448;8.612;2023-02-26T10:29:43;3.70;;;0.80;;
1106;SDS011;540;49.448;8.612;2023-02-26T10:32:21;1.45;;;0.57;;
1106;SDS011;540;49.448;8.612;2023-02-26T10:34:53;2.72;;;1.15;;
1106;SDS011;540;49.448;8.612;2023-02-26T10:37:27;2.45;;;0.90;;
1106;SDS011;540;49.448;8.612;2023-02-26T10:40:07;2.05;;;0.80;;
1106;SDS011;540;49.448;8.612;2023-02-26T10:42:41;2.08;;;0.98;;
1106;SDS011;540;49.448;8.612;2023-02-26T10:45:21;0.95;;;0.57;;
1106;SDS011;540;49.448;8.612;2023-02-26T10:47:57;1.13;;;0.50;;
1106;SDS011;540;49.448;8.612;2023-02-26T10:50:47;2.92;;;0.60;;
1106;SDS011;540;49.448;8.612;2023-02-26T10:53:16;1.13;;;0.40;;
1106;SDS011;540;49.448;8.612;2023-02-26T10:55:47;3.28;;;0.38;;
1106;SDS011;540;49.448;8.612;2023-02-26T10:58:19;0.63;;;0.50;;
1106;SDS011;540;49.448;8.612;2023-02-26T11:00:53;0.77;;;0.43;;
1106;SDS011;540;49.448;8.612;2023-02-26T11:03:25;1.55;;;0.50;;
1106;SDS011;540;49.448;8.612;2023-02-26T11:05:57;0.90;;;0.57;;
1106;SDS011;540;49.448;8.612;2023-02-26T11:08:26;0.98;;;0.52;;
1106;SDS011;540;49.448;8.612;2023-02-26T11:10:58;1.10;;;0.50;;
1106;SDS011;540;49.448;8.612;2023-02-26T11:13:28;0.93;;;0.52;;
1106;SDS011;540;49.448;8.612;2023-02-26T11:16:00;1.27;;;0.30;;
1106;SDS011;540;49.448;8.612;2023-02-26T11:18:29;1.88;;;0.47;;
1106;SDS011;540;49.448;8.612;2023-02-26T11:21:04;1.15;;;0.57;;
1106;SDS011;540;49.448;8.612;2023-02-26T11:23:32;2.05;;;0.80;;
1106;SDS011;540;49.448;8.612;2023-02-26T11:26:05;0.30;;;0.22;;
1106;SDS011;540;49.448;8.612;2023-02-26T11:28:35;0.77;;;0.30;;
1106;SDS011;540;49.448;8.612;2023-02-26T11:31:09;0.65;;;0.45;;
1106;SDS011;540;49.448;8.612;2023-02-26T11:33:39;1.85;;;0.20;;
1106;SDS011;540;49.448;8.612;2023-02-26T11:36:11;0.57;;;0.30;;
1106;SDS011;540;49.448;8.612;2023-02-26T11:38:43;2.80;;;1.40;;
1106;SDS011;540;49.448;8.612;2023-02-26T11:41:13;2.47;;;1.02;;
1106;SDS011;540;49.448;8.612;2023-02-26T11:43:42;1.75;;;0.40;;
1106;SDS011;540;49.448;8.612;2023-02-26T11:46:11;0.40;;;0.30;;
1106;SDS011;540;49.448;8.612;2023-02-26T11:48:42;3.15;;;0.80;;
1106;SDS011;540;49.448;8.612;2023-02-26T11:51:14;1.77;;;0.40;;
1106;SDS011;540;49.448;8.612;2023-02-26T11:53:47;0.50;;;0.50;;
1106;SDS011;540;49.448;8.612;2023-02-26T11:56:26;1.13;;;0.50;;
1106;SDS011;540;49.448;8.612;2023-02-26T11:58:59;0.82;;;0.40;;
1106;SDS011;540;49.448;8.612;2023-02-26T12:01:34;0.60;;;0.30;;
1106;SDS011;540;49.448;8.612;2023-02-26T12:04:03;1.00;;;0.20;;
1106;SDS011;540;49.448;8.612;2023-02-26T12:06:31;0.40;;;0.40;;
1106;SDS011;540;49.448;8.612;2023-02-26T12:08:59;0.65;;;0.32;;
1106;SDS011;540;49.448;8.612;2023-02-26T12:11:37;1.05;;;0.40;;
1106;SDS011;540;49.448;8.612;2023-02-26T12:17:22;1.25;;;0.35;;
1106;SDS011;540;49.448;8.612;2023-02-26T12:20:01;0.75;;;0.45;;
1106;SDS011;540;49.448;8.612;2023-02-26T12:25:42;0.73;;;0.43;;
1106;SDS011;540;49.448;8.612;2023-02-26T12:28:55;0.57;;;0.30;;
1106;SDS011;540;49.448;8.612;2023-02-26T12:31:47;0.93;;;0.38;;
1106;SDS011;540;49.448;8.612;2023-02-26T12:34:40;0.20;;;0.20;;
1106;SDS011;540;49.448;8.612;2023-02-26T12:37:23;0.70;;;0.20;;
1106;SDS011;540;49.448;8.612;2023-02-26T12:40:04;0.43;;;0.17;;
1106;SDS011;540;49.448;8.612;2023-02-26T12:42:40;0.73;;;0.45;;
1106;SDS011;540;49.448;8.612;2023-02-26T12:45:22;0.40;;;0.20;;
1106;SDS011;540;49.448;8.612;2023-02-26T12:48:05;0.38;;;0.20;;
1106;SDS011;540;49.448;8.612;2023-02-26T12:53:27;0.45;;;0.30;;
1106;SDS011;540;49.448;8.612;2023-02-26T12:56:13;0.57;;;0.17;;
1106;SDS011;540;49.448;8.612;2023-02-26T12:58:52;1.30;;;0.47;;
1106;SDS011;540;49.448;8.612;2023-02-26T13:01:38;0.50;;;0.30;;
1106;SDS011;540;49.448;8.612;2023-02-26T13:04:48;2.15;;;0.40;;
1106;SDS011;540;49.448;8.612;2023-02-26T13:07:35;0.30;;;0.20;;
1106;SDS011;540;49.448;8.612;2023-02-26T13:10:18;0.30;;;0.30;;
1106;SDS011;540;49.448;8.612;2023-02-26T13:12:56;1.27;;;0.30;;
1106;SDS011;540;49.448;8.612;2023-02-26T13:15:37;0.40;;;0.20;;
1106;SDS011;540;49.448;8.612;2023-02-26T13:18:17;0.40;;;0.20;;
1106;SDS011;540;49.448;8.612;2023-02-26T13:20:53;1.45;;;0.20;;
1106;SDS011;540;49.448;8.612;2023-02-26T13:23:27;1.30;;;0.82;;
1106;SDS011;540;49.448;8.612;2023-02-26T13:25:59;2.50;;;0.70;;
1106;SDS011;540;49.448;8.612;2023-02-26T13:28:34;1.55;;;0.60;;
1106;SDS011;540;49.448;8.612;2023-02-26T13:31:07;6.47;;;2.15;;
1106;SDS011;540;49.448;8.612;2023-02-26T13:33:41;1.13;;;0.65;;
1106;SDS011;540;49.448;8.612;2023-02-26T13:36:11;0.60;;;0.32;;
1106;SDS011;540;49.448;8.612;2023-02-26T13:38:47;0.43;;;0.30;;
1106;SDS011;540;49.448;8.612;2023-02-26T13:41:23;0.32;;;0.20;;
1106;SDS011;540;49.448;8.612;2023-02-26T13:44:03;5.88;;;2.30;;
1106;SDS011;540;49.448;8.612;2023-02-26T13:46:50;4.43;;;1.77;;
1106;SDS011;540;49.448;8.612;2023-02-26T13:49:46;2.47;;;1.55;;
1106;SDS011;540;49.448;8.612;2023-02-26T13:52:23;1.05;;;0.45;;
1106;SDS011;540;49.448;8.612;2023-02-26T13:54:53;0.43;;;0.20;;
1106;SDS011;540;49.448;8.612;2023-02-26T13:57:24;2.08;;;0.60;;
1106;SDS011;540;49.448;8.612;2023-02-26T14:00:01;1.25;;;0.60;;
1106;SDS011;540;49.448;8.612;2023-02-26T14:02:52;1.35;;;0.75;;
1106;SDS011;540;49.448;8.612;2023-02-26T14:05:35;0.28;;;0.28;;
1106;SDS011;540;49.448;8.612;2023-02-26T14:08:23;0.73;;;0.30;;
1106;SDS011;540;49.448;8.612;2023-02-26T14:11:26;0.65;;;0.40;;
1106;SDS011;540;49.448;8.612;2023-02-26T14:14:21;0.40;;;0.30;;
1106;SDS011;540;49.448;8.612;2023-02-26T14:16:53;0.25;;;0.20;;
1106;SDS011;540;49.448;8.612;2023-02-26T14:19:25;0.50;;;0.30;;
1106;SDS011;540;49.448;8.612;2023-02-26T14:21:56;0.55;;;0.35;;
1106;SDS011;540;49.448;8.612;2023-02-26T14:24:29;0.28;;;0.20;;
1106;SDS011;540;49.448;8.612;2023-02-26T14:27:05;0.68;;;0.28;;
1106;SDS011;540;49.448;8.612;2023-02-26T14:29:57;0.63;;;0.20;;
1106;SDS011;540;49.448;8.612;2023-02-26T14:32:32;0.40;;;0.20;;
1106;SDS011;540;49.448;8.612;2023-02-26T14:35:03;0.55;;;0.40;;
1106;SDS011;540;49.448;8.612;2023-02-26T14:37:37;0.98;;;0.50;;
1106;SDS011;540;49.448;8.612;2023-02-26T14:40:10;0.65;;;0.50;;
1106;SDS011;540;49.448;8.612;2023-02-26T14:42:42;0.30;;;0.25;;
1106;SDS011;540;49.448;8.612;2023-02-26T14:45:17;0.90;;;0.30;;
1106;SDS011;540;49.448;8.612;2023-02-26T14:48:00;1.85;;;0.73;;
1106;SDS011;540;49.448;8.612;2023-02-26T14:50:38;1.88;;;0.80;;
1106;SDS011;540;49.448;8.612;2023-02-26T14:56:26;7.38;;;1.05;;
1106;SDS011;540;49.448;8.612;2023-02-26T14:59:12;0.70;;;0.47;;
1106;SDS011;540;49.448;8.612;2023-02-26T15:01:51;0.65;;;0.40;;
1106;SDS011;540;49.448;8.612;2023-02-26T15:04:35;2.05;;;0.57;;
1106;SDS011;540;49.448;8.612;2023-02-26T15:07:22;0.35;;;0.22;;
1106;SDS011;540;49.448;8.612;2023-02-26T15:10:11;0.80;;;0.28;;
1106;SDS011;540;49.448;8.612;2023-02-26T15:12:51;0.20;;;0.20;;
1106;SDS011;540;49.448;8.612;2023-02-26T15:15:35;0.68;;;0.30;;
1106;SDS011;540;49.448;8.612;2023-02-26T15:18:12;1.15;;;0.35;;
1106;SDS011;540;49.448;8.612;2023-02-26T15:20:54;0.90;;;0.50;;
1106;SDS011;540;49.448;8.612;2023-02-26T15:23:33;0.93;;;0.40;;
1106;SDS011;540;49.448;8.612;2023-02-26T15:26:12;0.28;;;0.28;;
1106;SDS011;540;49.448;8.612;2023-02-26T15:28:47;0.63;;;0.40;;
1106;SDS011;540;49.448;8.612;2023-02-26T15:31:17;1.20;;;0.28;;
1106;SDS011;540;49.448;8.612;2023-02-26T15:33:46;1.45;;;0.30;;
1106;SDS011;540;49.448;8.612;2023-02-26T15:36:15;0.68;;;0.40;;
1106;SDS011;540;49.448;8.612;2023-02-26T15:38:48;1.23;;;0.30;;
1106;SDS011;540;49.448;8.612;2023-02-26T15:41:19;4.28;;;0.25;;
1106;SDS011;540;49.448;8.612;2023-02-26T15:43:50;2.25;;;1.25;;
1106;SDS011;540;49.448;8.612;2023-02-26T15:46:22;4.90;;;2.85;;
1106;SDS011;540;49.448;8.612;2023-02-26T15:48:57;0.57;;;0.50;;
1106;SDS011;540;49.448;8.612;2023-02-26T15:51:28;0.30;;;0.30;;
1106;SDS011;540;49.448;8.612;2023-02-26T15:53:56;0.90;;;0.40;;
1106;SDS011;540;49.448;8.612;2023-02-26T15:56:28;0.30;;;0.30;;
1106;SDS011;540;49.448;8.612;2023-02-26T15:59:00;1.00;;;0.43;;
1106;SDS011;540;49.448;8.612;2023-02-26T16:01:31;2.08;;;0.40;;
1106;SDS011;540;49.448;8.612;2023-02-26T16:03:59;0.38;;;0.38;;
1106;SDS011;540;49.448;8.612;2023-02-26T16:06:29;1.40;;;0.40;;
1106;SDS011;540;49.448;8.612;2023-02-26T16:08:58;0.28;;;0.28;;
1106;SDS011;540;49.448;8.612;2023-02-26T16:11:27;0.57;;;0.28;;
1106;SDS011;540;49.448;8.612;2023-02-26T16:14:00;1.30;;;0.50;;
1106;SDS011;540;49.448;8.612;2023-02-26T16:16:33;0.20;;;0.20;;
1106;SDS011;540;49.448;8.612;2023-02-26T16:19:07;1.55;;;0.45;;